Observations for NASHVILLE METRO, TN (BNA)

KBNA 261915Z 28005G16KT 1 1/2SM R02L/4500VP6000FT -TSRA BR FEW024 BKN031CB BKN065 BKN250 22/20 A2990 RMK AO2 LTG DSNT N AND SW RAB09 OCNL LTGICCG OHD-SW-NW TS O
KBNA 261919Z 00000KT 3/4SM R02L/3500VP6000FT VCTS +RA BR SCT024 BKN031CB OVC04422/21 A2990 RMK AO2 LTG DSNT N AND S RAB09 TSE17 OCNL LTGICCG OHD-SW-NW TS OHD-S
KBNA 261923Z VRB04KT 1 1/2SM R02L/3500VP6000FT VCTS RA BR FEW014 BKN031CB OVC044 22/20 A2990 RMK AO2 LTG DSNT N AND S AND SW RAB09 TSE17 OCNL LTGICCG OHD-SW-NW
KBNA 261853Z 30007G18KT 10SM TS FEW027 BKN032CB BKN075 BKN250 25/19 A2990 RMK AO2 LTG DSNT SW AND W TSB38 SLP119 OCNL LTGICCG OHD-NW TS OHD-NW MOV E TCU DSNT E-SE T02500194
KBNA 261828Z 17005KT 10SM SCT030 BKN036TCU BKN070 BKN250 28/20 A2990 RMK AO2 LTG DSNT SW AND W TCU OHD-ALQDS T02830200
KBNA 261838Z 23007KT 10SM TS SCT032 BKN042TCU BKN110 BKN250 28/20 A2990 RMK AO2LTG DSNT SW AND W TSB38 TCU OHD-ALQDS T02780200
KBNA 261814Z 17008KT 10SM VCTS BKN030TCU BKN040 BKN250 28/20 A2990 RMK AO2 LTG DSNT SW-NW TCU OHD-ALQDS T02780200
KBNA 261753Z 22005KT 10SM BKN027TCU BKN060 BKN250 28/20 A2991 RMK AO2 LTG DSNT W AND NW SLP120 TCU OHD ALQDS T02780200 10278 20211 58013
KBNA 261653Z VRB03KT 10SM BKN023 BKN055 BKN250 27/21 A2993 RMK AO2 LTG DSNT NW SLP127 T02720206 
KBNA 261637Z 19005KT 10SM BKN021 BKN045TCU BKN250 27/20 A2993 RMK AO2 LTG DSNT W TCU ALQDS T02670200
KBNA 261610Z VRB03KT 10SM FEW021 SCT045TCU BKN150 BKN250 27/20 A2993 RMK AO2 TCU NE-E T02670200
KBNA 261553Z 21005KT 10SM BKN018 BKN042 BKN250 26/20 A2994 RMK AO2 SLP132 T02610200 
KBNA 261503Z VRB05KT 10SM BKN018 BKN150 BKN250 26/20 A2995 RMK AO2 T02560200
KBNA 261453Z 18006KT 10SM SCT016 BKN150 BKN250 25/20 A2994 RMK AO2 SLP133 T02500200 50004   
KBNA 261353Z 20007KT 10SM FEW014 SCT060 24/19 A2995 RMK AO2 SLP134 T02390194
KBNA 261253Z 20005KT 10SM FEW055 SCT065 BKN150 BKN250 23/19 A2995 RMK AO2 SLP134 T02280189  
KBNA 261153Z 19005KT 10SM SCT045 BKN060 BKN150 BKN250 21/19 A2993 RMK AO2 SLP129 T02110189 10222 20194 53012
KBNA 261053Z 18004KT 10SM FEW044 SCT150 BKN250 20/18 A2992 RMK AO2 SLP124 T02000183 
KBNA 260953Z 20003KT 10SM FEW150 SCT250 19/18 A2991 RMK AO2 SLP121 T01940183
KBNA 260853Z 16006KT 10SM FEW170 SCT250 20/18 A2989 RMK AO2 SLP116 T02000183 56008  
KBNA 260753Z 17004KT 10SM FEW170 SCT250 21/18 A2990 RMK AO2 SLP117 T02060183
KBNA 260653Z 00000KT 10SM FEW170 OVC250 21/18 A2990 RMK AO2 SLP118 T02110183
KBNA 260553Z 00000KT 10SM FEW130 BKN250 22/18 A2992 RMK AO2 SLP123 T02220183 10261 20217 403280189 57002
KBNA 260453Z 18007KT 10SM BKN250 23/18 A2992 RMK AO2 SLP123 T02280183   
KBNA 260353Z 22008KT 10SM BKN250 24/18 A2992 RMK AO2 SLP125 T02390183   
KBNA 260253Z 19004KT 10SM OVC250 23/19 A2992 RMK AO2 SLP125 T02330194 51003 
KBNA 260153Z 18005KT 10SM FEW080 BKN200 24/19 A2992 RMK AO2 SLP124 T02390194
KBNA 260053Z 00000KT 10SM FEW050 SCT085 OVC150 25/19 A2993 RMK AO2 SLP127 T02500189 
KBNA 252353Z 00000KT 10SM BKN055 BKN080 OVC150 26/19 A2991 RMK AO2 LTG DSNT E SLP122 T02610189 10328 20250 53002
KBNA 252253Z 28003KT 10SM SCT055 OVC150 25/19 A2990 RMK AO2 LTG DSNT E AND SE SLP120 CB DSNT E MOV NE T02500189 
KBNA 252225Z 27010KT 10SM SCT055 BKN080 OVC200 26/18 A2990 RMK AO2 LTG DSNT SE AND S CB DSNT NW AND E MOV NE T02560183
KBNA 252204Z 24009G16KT 10SM VCTS SCT055 BKN080 BKN110 28/19 A2991 RMK AO2 LTG DSNT SW AND W CB DSNT SW-W AND E MOV NE T02830194
KBNA 252153Z 26003KT 10SM FEW055 BKN075 BKN110 29/19 A2990 RMK AO2 LTG DSNT SE-W SLP119 CB DSNT W AND E MOV NE T02890194
KBNA 252053Z 32005KT 10SM SCT055 BKN080 BKN110 30/17 A2991 RMK AO2 LTG DSNT NE AND SW SLP120 CB DSNT SW-NW AND E MOV NE T03000172 56027 
KBNA 251953Z 21007KT 10SM BKN055 BKN075 31/18 A2991 RMK AO2 SLP122 T03060183
KBNA 251853Z 00000KT 10SM FEW055TCU SCT080 SCT250 31/18 A2994 RMK AO2 LTG DSNT S SLP131 TCU OHD-ALQDS T03110178